Time;durP1;ratioP1;P1;durP2;ratioP2;P2;SDS_P1;SDS_P2;PMS_P1;PMS_P2;Temp;Humidity;BMP_temperature;BMP_pressure;BME280_temperature;BME280_humidity;BME280_pressure;Samples;Min_cycle;Max_cycle;Signal;HPM_P1;HPM_P2
2022/01/09 00:01:26;;;;;;;52.40;27.80;;;;;;;-0.28;76.11;99653.75;87582;1284;77344;-58
2022/01/09 00:03:35;;;;;;;50.10;27.00;;;;;;;-0.20;76.10;99653.20;87504;1286;83193;-58
2022/01/09 00:05:42;;;;;;;49.40;28.20;;;;;;;-0.22;76.06;99647.13;87346;1287;101279;-58
2022/01/09 00:07:49;;;;;;;50.50;28.60;;;;;;;-0.19;76.01;99648.48;87259;1287;88221;-58
2022/01/09 00:09:56;;;;;;;47.10;27.80;;;;;;;-0.18;76.19;99650.48;87589;1285;95458;-70
2022/01/09 00:12:04;;;;;;;50.90;26.90;;;;;;;-0.19;76.16;99646.70;87577;1284;77347;-68
2022/01/09 00:14:14;;;;;;;51.80;27.80;;;;;;;-0.22;76.01;99641.61;87613;1284;81582;-69
2022/01/09 00:16:26;;;;;;;54.30;28.70;;;;;;;-0.26;76.03;99641.52;87595;1284;99531;-68
2022/01/09 00:18:37;;;;;;;50.40;28.00;;;;;;;-0.30;75.96;99641.58;87372;1287;88947;-68
2022/01/09 00:20:47;;;;;;;54.00;29.10;;;;;;;-0.36;76.02;99643.10;87569;1284;92593;-58
2022/01/09 00:22:57;;;;;;;50.90;27.50;;;;;;;-0.38;75.89;99640.30;87583;1284;79627;-57
2022/01/09 00:25:04;;;;;;;50.60;27.30;;;;;;;-0.40;76.11;99638.23;87595;1284;82242;-68
2022/01/09 00:27:11;;;;;;;48.50;27.90;;;;;;;-0.41;76.09;99635.96;87581;1284;99994;-69
2022/01/09 00:29:22;;;;;;;48.60;26.90;;;;;;;-0.41;76.06;99634.80;87584;1284;88316;-58
2022/01/09 00:31:28;;;;;;;47.80;27.30;;;;;;;-0.39;76.01;99635.96;87521;1285;92395;-58
2022/01/09 00:33:38;;;;;;;49.30;25.70;;;;;;;-0.33;76.26;99634.20;87375;1287;81601;-58
2022/01/09 00:35:45;;;;;;;50.10;27.00;;;;;;;-0.28;76.26;99635.34;87586;1284;80303;-58
2022/01/09 00:37:54;;;;;;;48.10;27.40;;;;;;;-0.23;76.28;99629.56;87577;1284;97691;-58
2022/01/09 00:40:01;;;;;;;46.40;27.90;;;;;;;-0.19;76.23;99625.11;87521;1285;88959;-68
2022/01/09 00:42:10;;;;;;;50.60;29.70;;;;;;;-0.20;76.13;99622.77;87565;1284;96349;-68
2022/01/09 00:44:16;;;;;;;49.80;29.10;;;;;;;-0.21;76.20;99624.26;87596;1283;78599;-58
2022/01/09 00:46:26;;;;;;;55.00;29.90;;;;;;;-0.18;75.97;99620.42;87583;1284;80791;-58
2022/01/09 00:48:32;;;;;;;50.90;28.40;;;;;;;-0.22;75.97;99618.66;87542;1284;97776;-59
2022/01/09 00:50:42;;;;;;;52.80;28.00;;;;;;;-0.26;76.07;99614.25;87607;1284;88331;-68
2022/01/09 00:52:51;;;;;;;51.50;27.30;;;;;;;-0.30;76.07;99612.02;87599;1284;95570;-69
2022/01/09 00:55:01;;;;;;;50.40;27.80;;;;;;;-0.32;76.05;99605.82;87561;1284;77288;-67
2022/01/09 00:57:08;;;;;;;51.80;29.00;;;;;;;-0.39;76.07;99604.64;87590;1284;80375;-69
2022/01/09 00:59:14;;;;;;;52.30;27.60;;;;;;;-0.40;76.10;99601.63;87578;1284;100092;-69
2022/01/09 01:01:21;;;;;;;49.80;27.70;;;;;;;-0.42;76.07;99599.34;87385;1288;86695;-69
2022/01/09 01:03:27;;;;;;;49.30;25.50;;;;;;;-0.45;76.02;99597.77;87503;1285;95724;-67
2022/01/09 01:05:36;;;;;;;47.60;26.30;;;;;;;-0.42;76.06;99599.83;87568;1284;79112;-58
2022/01/09 01:07:41;;;;;;;46.30;26.90;;;;;;;-0.38;76.10;99598.75;87558;1284;82536;-59
2022/01/09 01:09:48;;;;;;;45.30;26.00;;;;;;;-0.35;76.30;99596.55;87615;1284;99967;-69
2022/01/09 01:11:54;;;;;;;53.40;29.10;;;;;;;-0.28;76.24;99589.30;87551;1284;89386;-70
2022/01/09 01:14:00;;;;;;;46.80;26.40;;;;;;;-0.23;76.26;99586.96;87565;1284;95547;-59
2022/01/09 01:16:07;;;;;;;50.80;28.30;;;;;;;-0.26;76.35;99583.08;87551;1284;79456;-59
2022/01/09 01:18:13;;;;;;;51.90;28.10;;;;;;;-0.18;76.25;99581.14;87581;1284;82804;-59
2022/01/09 01:20:21;;;;;;;53.50;27.80;;;;;;;-0.16;76.19;99577.73;87548;1284;99514;-58
2022/01/09 01:22:30;;;;;;;48.80;27.40;;;;;;;-0.17;76.25;99574.72;87554;1284;87722;-58
2022/01/09 01:24:39;;;;;;;48.40;26.50;;;;;;;-0.17;76.21;99570.95;87546;1284;94456;-57
2022/01/09 01:26:45;;;;;;;51.60;28.20;;;;;;;-0.17;76.11;99571.89;87590;1284;80141;-58
2022/01/09 01:28:51;;;;;;;50.00;28.50;;;;;;;-0.22;76.08;99566.98;87572;1284;82752;-58
2022/01/09 01:30:58;;;;;;;52.10;27.50;;;;;;;-0.27;75.92;99565.70;87547;1284;99592;-58
2022/01/09 01:33:04;;;;;;;48.50;26.50;;;;;;;-0.29;76.04;99562.19;87594;1284;89261;-58
2022/01/09 01:35:12;;;;;;;45.90;25.70;;;;;;;-0.33;76.16;99559.36;87589;1284;94446;-69
2022/01/09 01:37:21;;;;;;;50.80;27.40;;;;;;;-0.35;76.12;99560.77;87562;1284;80675;-69
2022/01/09 01:39:27;;;;;;;48.00;26.00;;;;;;;-0.36;76.12;99555.39;87596;1284;83179;-58
2022/01/09 01:41:34;;;;;;;42.90;25.80;;;;;;;-0.33;76.03;99551.21;87580;1284;98620;-59
2022/01/09 01:43:43;;;;;;;47.00;25.30;;;;;;;-0.27;76.12;99553.14;87583;1284;89483;-58
2022/01/09 01:45:49;;;;;;;46.90;26.10;;;;;;;-0.18;76.35;99549.16;87584;1284;96039;-58
2022/01/09 01:48:02;;;;;;;49.20;26.90;;;;;;;-0.14;76.26;99545.34;87568;1284;79142;-57
2022/01/09 01:50:14;;;;;;;48.80;25.90;;;;;;;-0.13;76.25;99546.45;87608;1284;80961;-58
2022/01/09 01:52:29;;;;;;;47.40;25.70;;;;;;;-0.07;76.23;99544.50;87584;1284;98666;-58
2022/01/09 01:54:42;;;;;;;49.50;25.90;;;;;;;-0.06;76.13;99541.45;87564;1284;87778;-58
2022/01/09 01:56:48;;;;;;;53.70;28.10;;;;;;;-0.04;76.08;99539.13;87554;1284;95176;-58
2022/01/09 01:59:01;;;;;;;48.30;27.60;;;;;;;-0.06;76.02;99532.25;87578;1284;76849;-67
2022/01/09 02:01:09;;;;;;;48.00;27.30;;;;;;;-0.12;76.01;99531.14;87597;1283;81629;-70
2022/01/09 02:03:15;;;;;;;49.80;26.30;;;;;;;-0.17;76.03;99531.66;87536;1284;98068;-68
2022/01/09 02:05:21;;;;;;;49.50;27.60;;;;;;;-0.21;75.85;99531.14;87572;1284;88594;-69
2022/01/09 02:07:27;;;;;;;52.90;28.40;;;;;;;-0.25;75.87;99535.81;87509;1285;95596;-67
2022/01/09 02:09:36;;;;;;;46.60;27.80;;;;;;;-0.31;76.04;99535.45;87542;1284;77733;-70
2022/01/09 02:11:42;;;;;;;49.00;26.90;;;;;;;-0.32;76.07;99532.05;87579;1284;81562;-69
2022/01/09 02:13:52;;;;;;;48.70;26.40;;;;;;;-0.34;76.00;99532.36;87565;1284;98482;-67
2022/01/09 02:16:01;;;;;;;45.60;25.50;;;;;;;-0.36;76.05;99531.36;87578;1284;89876;-57
2022/01/09 02:18:10;;;;;;;46.10;26.20;;;;;;;-0.35;76.08;99527.52;87377;1287;95752;-57
2022/01/09 02:20:16;;;;;;;46.30;27.00;;;;;;;-0.30;76.11;99523.86;87570;1284;81000;-69
2022/01/09 02:22:24;;;;;;;45.00;25.10;;;;;;;-0.24;76.12;99517.52;87565;1284;81099;-68
2022/01/09 02:24:30;;;;;;;48.50;26.60;;;;;;;-0.19;76.04;99517.54;87550;1284;99571;-69
2022/01/09 02:26:36;;;;;;;52.90;27.30;;;;;;;-0.19;76.17;99514.57;87583;1284;89106;-69
2022/01/09 02:28:46;;;;;;;47.90;26.30;;;;;;;-0.21;76.05;99509.91;87572;1284;97258;-69
2022/01/09 02:30:53;;;;;;;50.40;28.50;;;;;;;-0.21;76.05;99509.91;87588;1284;78942;-69
2022/01/09 02:33:04;;;;;;;47.10;27.20;;;;;;;-0.22;76.00;99507.06;87595;1284;80452;-70
2022/01/09 02:35:13;;;;;;;51.40;26.40;;;;;;;-0.23;75.98;99503.95;87562;1284;98808;-68
2022/01/09 02:37:21;;;;;;;46.80;26.70;;;;;;;-0.26;75.76;99503.33;87578;1284;89353;-68
2022/01/09 02:39:30;;;;;;;51.00;29.60;;;;;;;-0.30;75.79;99503.87;87587;1284;94671;-67
2022/01/09 02:41:37;;;;;;;49.10;26.70;;;;;;;-0.33;75.75;99503.83;87547;1284;77160;-68
2022/01/09 02:43:46;;;;;;;51.80;27.70;;;;;;;-0.36;75.82;99500.39;87560;1284;82342;-68
2022/01/09 02:45:59;;;;;;;49.60;26.00;;;;;;;-0.41;75.82;99497.83;87397;1287;99799;-58
2022/01/09 02:48:05;;;;;;;;;;;;;;;-0.45;75.81;99498.75;87554;1284;89778;-59
2022/01/09 02:50:27;;;;;;;53.20;27.30;;;;;;;-0.49;75.86;99496.98;87538;1284;95029;-69
2022/01/09 02:52:35;;;;;;;49.90;27.60;;;;;;;-0.47;75.98;99495.42;87574;1284;79483;-68
2022/01/09 02:57:09;;;;;;;48.50;25.70;;;;;;;-0.43;75.99;99485.17;87541;1284;100309;-58
2022/01/09 02:59:15;;;;;;;45.80;25.20;;;;;;;-0.39;76.04;99485.64;87391;1288;90813;-68
2022/01/09 03:01:21;;;;;;;49.60;27.20;;;;;;;-0.35;76.00;99479.80;87481;1285;94360;-68
2022/01/09 03:03:28;;;;;;;50.70;26.70;;;;;;;-0.31;75.88;99481.49;87519;1284;78992;-67
2022/01/09 03:05:38;;;;;;;48.60;26.20;;;;;;;-0.32;75.97;99475.08;87542;1283;83811;-69
2022/01/09 03:07:46;;;;;;;46.70;25.00;;;;;;;-0.32;75.78;99473.34;87564;1284;98402;-69
2022/01/09 03:09:51;;;;;;;48.50;26.30;;;;;;;-0.37;75.85;99469.33;87592;1284;89245;-59
2022/01/09 03:11:57;;;;;;;48.40;28.30;;;;;;;-0.40;75.82;99470.40;87559;1284;95468;-58
2022/01/09 03:14:03;;;;;;;48.10;25.80;;;;;;;-0.45;75.80;99471.17;87557;1284;77881;-58
2022/01/09 03:16:11;;;;;;;47.60;26.00;;;;;;;-0.49;75.95;99469.05;87568;1284;80486;-58
2022/01/09 03:18:17;;;;;;;48.80;26.50;;;;;;;-0.53;75.78;99467.19;87555;1284;100263;-58
2022/01/09 03:20:25;;;;;;;49.70;26.20;;;;;;;-0.60;75.85;99466.16;87579;1284;88468;-70
2022/01/09 03:22:31;;;;;;;56.10;29.50;;;;;;;-0.65;75.75;99467.70;87537;1284;93682;-71
2022/01/09 03:24:38;;;;;;;59.50;30.30;;;;;;;-0.69;75.87;99469.52;87572;1284;80061;-69
2022/01/09 03:26:44;;;;;;;59.50;27.70;;;;;;;-0.71;75.99;99473.59;87537;1284;82990;-69
2022/01/09 03:28:51;;;;;;;49.40;26.10;;;;;;;-0.71;76.03;99468.77;87551;1284;99746;-68
2022/01/09 03:30:57;;;;;;;51.90;27.20;;;;;;;-0.68;76.01;99467.33;87461;1285;87768;-69
2022/01/09 03:33:03;;;;;;;47.90;25.30;;;;;;;-0.67;76.26;99464.86;87539;1284;92642;-70
2022/01/09 03:35:15;;;;;;;47.00;25.60;;;;;;;-0.62;75.98;99467.05;87553;1284;79160;-58
2022/01/09 03:37:22;;;;;;;44.30;25.60;;;;;;;-0.60;76.11;99466.75;87582;1284;81525;-59
2022/01/09 03:39:28;;;;;;;50.90;27.60;;;;;;;-0.60;76.23;99465.62;87481;1285;98539;-67
2022/01/09 03:41:33;;;;;;;54.90;28.00;;;;;;;-0.59;76.14;99463.84;87561;1284;86435;-67
2022/01/09 03:43:42;;;;;;;52.40;29.10;;;;;;;-0.58;76.23;99467.11;87532;1284;95821;-69
2022/01/09 03:45:48;;;;;;;51.40;28.20;;;;;;;-0.57;76.10;99469.14;87571;1284;80477;-69
2022/01/09 03:47:55;;;;;;;49.20;27.70;;;;;;;-0.59;75.93;99470.54;87556;1284;80590;-69
2022/01/09 03:50:01;;;;;;;55.80;28.80;;;;;;;-0.67;76.11;99472.11;87525;1285;98383;-58
2022/01/09 03:52:09;;;;;;;54.40;28.70;;;;;;;-0.71;76.08;99470.89;87573;1284;86974;-60
2022/01/09 03:54:20;;;;;;;46.20;26.10;;;;;;;-0.75;76.10;99471.14;87548;1284;95066;-59
2022/01/09 03:56:27;;;;;;;47.60;25.40;;;;;;;-0.83;76.06;99470.81;87564;1284;79566;-58
2022/01/09 03:58:35;;;;;;;47.20;26.50;;;;;;;-0.89;76.07;99472.98;87566;1284;82385;-59
2022/01/09 04:00:44;;;;;;;54.80;27.30;;;;;;;-0.96;76.18;99469.05;87568;1284;99373;-58
2022/01/09 04:02:51;;;;;;;49.80;27.20;;;;;;;-1.02;76.47;99469.52;87282;1284;406865;-58
2022/01/09 04:04:57;;;;;;;47.00;24.50;;;;;;;-1.05;76.21;99469.30;87568;1284;94218;-59
2022/01/09 04:07:07;;;;;;;46.80;25.70;;;;;;;-1.05;76.25;99472.54;87513;1285;80544;-58
2022/01/09 04:09:19;;;;;;;46.60;24.90;;;;;;;-1.06;76.31;99471.70;87582;1284;81650;-69
2022/01/09 04:11:35;;;;;;;55.00;27.10;;;;;;;-1.09;76.36;99471.08;87557;1284;99958;-69
2022/01/09 04:13:44;;;;;;;46.50;26.20;;;;;;;-1.16;76.34;99472.58;87578;1284;88519;-70
2022/01/09 04:15:50;;;;;;;50.00;26.90;;;;;;;-1.25;76.41;99475.74;87583;1284;94733;-58
2022/01/09 04:18:00;;;;;;;47.70;26.60;;;;;;;-1.33;76.56;99472.03;87543;1284;80313;-58
2022/01/09 04:20:12;;;;;;;52.50;28.00;;;;;;;-1.37;76.73;99472.59;87575;1284;82051;-59
2022/01/09 04:22:18;;;;;;;50.60;28.10;;;;;;;-1.47;76.57;99467.34;87568;1284;98979;-59
2022/01/09 04:24:27;;;;;;;53.70;28.70;;;;;;;-1.54;76.75;99473.41;87565;1284;88069;-69
2022/01/09 04:26:33;;;;;;;49.90;27.40;;;;;;;-1.60;76.80;99470.73;87529;1284;95083;-69
2022/01/09 04:28:42;;;;;;;48.80;26.00;;;;;;;-1.69;76.65;99468.37;87398;1287;79162;-69
2022/01/09 04:30:48;;;;;;;49.20;27.40;;;;;;;-1.74;77.07;99465.84;87590;1284;80463;-58
2022/01/09 04:32:54;;;;;;;55.40;29.30;;;;;;;-1.81;77.03;99464.98;87600;1284;97663;-58
2022/01/09 04:35:04;;;;;;;58.20;29.10;;;;;;;-1.86;77.10;99464.89;87589;1284;88154;-70
2022/01/09 04:37:10;;;;;;;49.00;27.20;;;;;;;-1.88;77.35;99467.92;87529;1284;94580;-70
2022/01/09 04:39:16;;;;;;;50.50;27.60;;;;;;;-1.88;77.39;99465.83;87561;1284;80356;-70
2022/01/09 04:41:22;;;;;;;51.00;27.90;;;;;;;-1.88;77.53;99469.73;87604;1284;81636;-69
2022/01/09 04:43:28;;;;;;;49.00;25.20;;;;;;;-1.87;77.45;99471.18;87475;1285;98840;-67
2022/01/09 04:45:34;;;;;;;52.80;28.10;;;;;;;-1.86;77.49;99469.87;87545;1284;89869;-68
2022/01/09 04:47:43;;;;;;;46.20;25.70;;;;;;;-1.83;77.70;99465.52;87533;1284;94355;-71
2022/01/09 04:49:50;;;;;;;46.50;27.00;;;;;;;-1.85;77.81;99463.58;87567;1284;77478;-58
2022/01/09 04:51:57;;;;;;;55.50;29.00;;;;;;;-1.82;77.79;99455.79;87577;1284;80517;-58
2022/01/09 04:54:04;;;;;;;51.00;27.50;;;;;;;-1.79;78.21;99450.77;87514;1286;100158;-68
2022/01/09 04:56:10;;;;;;;50.50;27.60;;;;;;;-1.78;77.91;99452.23;87562;1284;89124;-69
2022/01/09 04:58:16;;;;;;;52.90;27.40;;;;;;;-1.81;77.94;99450.14;87575;1284;94590;-68
2022/01/09 05:00:22;;;;;;;51.90;28.80;;;;;;;-1.86;78.36;99446.75;87581;1284;77552;-57
2022/01/09 05:02:28;;;;;;;56.00;29.80;;;;;;;-1.85;78.35;99444.70;87580;1284;82708;-58
2022/01/09 05:04:34;;;;;;;53.70;29.00;;;;;;;-1.83;78.16;99444.95;87584;1284;97841;-59
2022/01/09 05:06:43;;;;;;;52.80;28.30;;;;;;;-1.82;78.05;99444.85;87568;1284;87555;-62
2022/01/09 05:08:49;;;;;;;54.00;28.70;;;;;;;-1.79;78.03;99447.22;87557;1284;95345;-59
2022/01/09 05:10:55;;;;;;;51.30;26.50;;;;;;;-1.76;78.12;99440.94;87451;1286;80999;-60
2022/01/09 05:13:01;;;;;;;54.90;28.70;;;;;;;-1.72;78.40;99439.19;87517;1284;80864;-59
2022/01/09 05:15:13;;;;;;;56.40;28.50;;;;;;;-1.65;78.35;99437.14;87556;1284;99533;-58
2022/01/09 05:17:19;;;;;;;50.90;27.70;;;;;;;-1.54;78.39;99439.20;87399;1287;88058;-58
2022/01/09 05:19:31;;;;;;;52.80;28.60;;;;;;;-1.51;78.37;99437.52;87537;1284;93699;-58
2022/01/09 05:21:38;;;;;;;54.10;29.40;;;;;;;-1.44;78.33;99436.15;87556;1284;79550;-58
2022/01/09 05:23:43;;;;;;;53.90;28.90;;;;;;;-1.41;78.36;99434.45;87562;1284;83077;-58
2022/01/09 05:25:51;;;;;;;54.80;29.60;;;;;;;-1.36;78.13;99431.03;87545;1284;98306;-69
2022/01/09 05:27:58;;;;;;;51.40;28.00;;;;;;;-1.38;78.03;99432.23;87550;1284;87530;-70
2022/01/09 05:30:06;;;;;;;48.80;27.30;;;;;;;-1.43;78.03;99435.86;87236;1289;95769;-66
2022/01/09 05:32:14;;;;;;;56.40;28.70;;;;;;;-1.50;78.16;99435.63;87542;1284;79347;-70
2022/01/09 05:34:20;;;;;;;54.20;27.90;;;;;;;-1.53;78.00;99436.80;87535;1284;83145;-58
2022/01/09 05:36:26;;;;;;;53.70;30.50;;;;;;;-1.58;78.10;99432.25;87535;1284;99183;-57
2022/01/09 05:38:32;;;;;;;55.30;28.40;;;;;;;-1.63;78.09;99435.56;87517;1284;88991;-58
2022/01/09 05:40:38;;;;;;;51.70;27.80;;;;;;;-1.67;78.09;99434.29;87537;1284;94470;-69
2022/01/09 05:42:44;;;;;;;51.80;28.30;;;;;;;-1.68;78.23;99438.30;87509;1284;79320;-68
2022/01/09 05:44:50;;;;;;;50.80;26.20;;;;;;;-1.66;78.39;99437.27;87544;1284;81379;-58
2022/01/09 05:46:56;;;;;;;50.60;27.40;;;;;;;-1.59;78.35;99440.37;87521;1284;100002;-58
2022/01/09 05:49:05;;;;;;;50.00;25.70;;;;;;;-1.58;78.41;99435.77;87529;1284;89702;-67
2022/01/09 05:51:11;;;;;;;49.80;26.90;;;;;;;-1.57;78.33;99438.94;87523;1284;95739;-69
2022/01/09 05:53:17;;;;;;;52.40;28.00;;;;;;;-1.60;78.38;99433.70;87549;1284;77570;-69
2022/01/09 05:55:23;;;;;;;49.90;26.70;;;;;;;-1.62;78.30;99430.18;87542;1284;81970;-70
2022/01/09 05:57:29;;;;;;;47.60;26.20;;;;;;;-1.66;78.30;99427.75;87549;1284;100346;-67
2022/01/09 05:59:35;;;;;;;47.40;26.30;;;;;;;-1.70;78.53;99427.02;87532;1284;87624;-67
2022/01/09 06:01:41;;;;;;;63.60;29.90;;;;;;;-1.73;78.31;99425.47;87522;1284;95128;-70
2022/01/09 06:03:48;;;;;;;50.80;28.20;;;;;;;-1.74;78.39;99427.17;87524;1284;77402;-69
2022/01/09 06:05:54;;;;;;;48.80;26.30;;;;;;;-1.79;78.50;99422.48;87578;1284;83893;-59
2022/01/09 06:08:00;;;;;;;49.70;26.70;;;;;;;-1.85;78.23;99422.66;87535;1284;99685;-60
2022/01/09 06:10:09;;;;;;;53.10;29.20;;;;;;;-1.88;78.56;99421.36;87551;1284;88989;-59
2022/01/09 06:12:18;;;;;;;49.30;26.30;;;;;;;-1.90;78.41;99422.64;87518;1284;94379;-60
2022/01/09 06:14:24;;;;;;;45.80;25.70;;;;;;;-1.91;78.26;99419.68;87544;1284;79939;-56
2022/01/09 06:16:30;;;;;;;45.70;25.30;;;;;;;-1.88;78.59;99426.31;87555;1284;83626;-57
2022/01/09 06:18:37;;;;;;;50.00;26.50;;;;;;;-1.86;78.87;99422.20;87557;1284;100197;-58
2022/01/09 06:20:42;;;;;;;47.20;25.20;;;;;;;-1.83;78.90;99425.34;87596;1284;89048;-58
2022/01/09 06:22:49;;;;;;;51.00;26.80;;;;;;;-1.83;78.77;99422.66;87567;1284;94224;-58
2022/01/09 06:24:56;;;;;;;49.10;26.00;;;;;;;-1.80;78.84;99422.38;87561;1284;80051;-68
2022/01/09 06:27:06;;;;;;;49.70;25.20;;;;;;;-1.78;78.56;99422.56;87556;1284;83338;-69
2022/01/09 06:29:12;;;;;;;46.80;26.00;;;;;;;-1.82;78.87;99426.64;87575;1284;100448;-59
2022/01/09 06:31:21;;;;;;;49.60;27.60;;;;;;;-1.85;78.60;99424.77;87545;1284;89071;-58
2022/01/09 06:33:27;;;;;;;51.40;27.20;;;;;;;-1.88;78.51;99428.61;87574;1284;96131;-58
2022/01/09 06:35:33;;;;;;;50.20;26.50;;;;;;;-1.90;78.59;99426.81;87537;1284;80566;-71
2022/01/09 06:37:42;;;;;;;54.30;26.70;;;;;;;-1.95;78.57;99427.45;87560;1284;83484;-68
2022/01/09 06:39:48;;;;;;;47.40;25.60;;;;;;;-1.96;78.51;99430.38;87513;1284;98143;-58
2022/01/09 06:41:57;;;;;;;47.90;25.10;;;;;;;-1.96;78.61;99429.85;87572;1284;88913;-58
2022/01/09 06:44:03;;;;;;;54.50;26.60;;;;;;;-1.97;78.47;99432.42;87557;1284;95621;-58
2022/01/09 06:46:12;;;;;;;49.50;26.30;;;;;;;-1.96;78.48;99431.62;87552;1284;80077;-69
2022/01/09 06:48:21;;;;;;;47.20;25.10;;;;;;;-1.92;78.94;99431.64;87554;1284;81950;-58
2022/01/09 06:50:30;;;;;;;49.90;26.30;;;;;;;-1.89;78.47;99435.69;87517;1284;100129;-68
2022/01/09 06:52:38;;;;;;;48.30;25.30;;;;;;;-1.90;78.40;99435.82;87565;1284;88158;-69
2022/01/09 06:54:45;;;;;;;51.40;27.40;;;;;;;-1.92;78.55;99436.34;87446;1287;95476;-59
2022/01/09 06:56:51;;;;;;;50.20;25.20;;;;;;;-1.93;78.57;99430.39;87536;1284;76925;-58
2022/01/09 06:58:57;;;;;;;44.30;25.30;;;;;;;-1.98;78.53;99429.60;87568;1284;82960;-63
2022/01/09 07:01:03;;;;;;;50.60;26.30;;;;;;;-1.99;78.44;99429.55;87583;1284;97390;-57
2022/01/09 07:03:09;;;;;;;50.80;27.20;;;;;;;-2.03;78.62;99431.65;87580;1284;87298;-58
2022/01/09 07:05:16;;;;;;;48.90;26.10;;;;;;;-2.08;78.51;99433.70;87573;1284;94555;-68
2022/01/09 07:07:22;;;;;;;54.30;26.20;;;;;;;-2.10;78.51;99437.97;87561;1284;78262;-68
2022/01/09 07:09:27;;;;;;;51.60;26.40;;;;;;;-2.12;78.54;99440.22;87561;1284;80505;-69
2022/01/09 07:11:33;;;;;;;50.30;26.10;;;;;;;-2.11;78.54;99442.06;87536;1284;99734;-67
2022/01/09 07:13:39;;;;;;;47.20;26.40;;;;;;;-2.08;78.56;99443.94;87526;1284;89707;-67
2022/01/09 07:15:46;;;;;;;50.80;25.40;;;;;;;-2.01;78.70;99448.98;87562;1284;94644;-70
2022/01/09 07:17:52;;;;;;;51.60;25.80;;;;;;;-1.94;78.75;99450.83;87550;1284;77552;-68
2022/01/09 07:20:01;;;;;;;48.80;24.90;;;;;;;-1.89;78.70;99444.52;87604;1284;82705;-69
2022/01/09 07:22:10;;;;;;;55.40;26.20;;;;;;;-1.81;78.80;99450.23;87551;1284;100105;-67
2022/01/09 07:24:16;;;;;;;50.70;27.30;;;;;;;-1.81;78.67;99452.28;87585;1284;86815;-57
2022/01/09 07:26:22;;;;;;;55.00;26.90;;;;;;;-1.77;78.66;99453.55;87559;1284;95503;-58
2022/01/09 07:28:31;;;;;;;49.50;26.70;;;;;;;-1.76;78.69;99445.54;87533;1284;78237;-59
2022/01/09 07:30:37;;;;;;;51.40;25.90;;;;;;;-1.73;78.42;99446.56;87537;1284;81898;-58
2022/01/09 07:32:43;;;;;;;52.70;26.90;;;;;;;-1.75;78.50;99449.52;87582;1284;100478;-58
2022/01/09 07:34:49;;;;;;;51.10;27.90;;;;;;;-1.72;78.58;99449.27;87553;1284;89479;-68
2022/01/09 07:36:55;;;;;;;49.20;26.80;;;;;;;-1.68;78.53;99447.84;87574;1284;95188;-69
2022/01/09 07:39:02;;;;;;;49.90;26.80;;;;;;;-1.50;78.29;99450.98;87530;1284;77109;-57
2022/01/09 07:41:12;;;;;;;52.60;26.50;;;;;;;-1.22;78.25;99453.02;87581;1284;80839;-57
2022/01/09 07:43:18;;;;;;;51.60;28.10;;;;;;;-0.91;77.92;99454.21;87556;1284;99561;-57
2022/01/09 07:45:29;;;;;;;48.50;25.90;;;;;;;-0.45;78.12;99451.19;87435;1286;88997;-58
2022/01/09 07:47:35;;;;;;;48.70;27.50;;;;;;;0.49;77.94;99444.41;87580;1284;95386;-59
2022/01/09 07:49:41;;;;;;;48.90;27.20;;;;;;;1.35;77.39;99440.78;87574;1284;78109;-68
2022/01/09 07:51:47;;;;;;;46.20;26.80;;;;;;;2.04;76.55;99436.36;87547;1284;81094;-68
2022/01/09 07:53:55;;;;;;;49.40;28.10;;;;;;;2.45;75.45;99434.48;87577;1284;99845;-69
2022/01/09 07:56:01;;;;;;;47.20;28.00;;;;;;;2.95;74.90;99433.54;87582;1284;89308;-58
2022/01/09 07:58:07;;;;;;;49.30;28.60;;;;;;;3.38;74.14;99435.90;87357;1287;95437;-59
2022/01/09 08:00:19;;;;;;;48.00;29.20;;;;;;;3.61;72.93;99433.22;87530;1284;77393;-69
2022/01/09 08:02:25;;;;;;;53.00;29.40;;;;;;;3.63;71.21;99428.95;87576;1284;80924;-70
2022/01/09 08:04:34;;;;;;;54.40;29.40;;;;;;;3.61;70.60;99428.35;87574;1284;97385;-69
2022/01/09 08:06:40;;;;;;;52.60;31.00;;;;;;;3.75;70.02;99433.42;87550;1284;88304;-69
2022/01/09 08:08:49;;;;;;;51.10;30.10;;;;;;;3.82;69.66;99428.55;87571;1284;94666;-68
2022/01/09 08:10:55;;;;;;;48.70;29.50;;;;;;;3.68;68.80;99432.06;87436;1286;79373;-58
2022/01/09 08:13:01;;;;;;;47.00;30.20;;;;;;;3.74;68.74;99431.73;87555;1284;80533;-70
2022/01/09 08:15:09;;;;;;;49.60;30.50;;;;;;;4.02;68.80;99433.19;87580;1283;97271;-69
2022/01/09 08:17:16;;;;;;;47.30;29.50;;;;;;;4.44;68.51;99429.52;87549;1284;89928;-69
2022/01/09 08:19:25;;;;;;;49.40;30.50;;;;;;;4.19;67.14;99433.29;87593;1284;95069;-60
2022/01/09 08:21:37;;;;;;;48.00;29.10;;;;;;;3.56;67.26;99435.00;87578;1283;77772;-68
2022/01/09 08:23:48;;;;;;;47.80;28.80;;;;;;;3.05;67.78;99439.95;87574;1284;81125;-67
2022/01/09 08:25:55;;;;;;;47.30;29.40;;;;;;;2.59;67.95;99434.20;87606;1284;99682;-58
2022/01/09 08:28:01;;;;;;;43.80;26.60;;;;;;;2.07;68.31;99434.94;87584;1284;89446;-68
2022/01/09 08:30:10;;;;;;;45.70;28.70;;;;;;;1.80;68.65;99442.05;87445;1285;92035;-70
2022/01/09 08:32:21;;;;;;;44.80;26.80;;;;;;;1.65;68.59;99444.95;87545;1284;78677;-58
2022/01/09 08:34:31;;;;;;;46.00;26.90;;;;;;;1.57;68.91;99449.27;87601;1284;82427;-69
2022/01/09 08:36:41;;;;;;;48.10;27.30;;;;;;;1.54;69.23;99447.91;87600;1284;99469;-57
2022/01/09 08:38:49;;;;;;;45.70;27.60;;;;;;;1.57;69.29;99449.34;87584;1284;88842;-69
2022/01/09 08:40:58;;;;;;;47.60;29.00;;;;;;;1.95;69.42;99444.92;87561;1284;94682;-59
2022/01/09 08:43:04;;;;;;;46.50;28.90;;;;;;;2.80;69.47;99447.20;87379;1287;79615;-59
2022/01/09 08:45:13;;;;;;;52.00;30.40;;;;;;;3.71;69.00;99443.41;87451;1285;80657;-59
2022/01/09 08:47:24;;;;;;;46.60;27.80;;;;;;;4.38;68.34;99440.87;87589;1284;99123;-58
2022/01/09 08:49:30;;;;;;;44.60;27.80;;;;;;;4.53;67.68;99443.30;87446;1285;87409;-68
2022/01/09 08:51:37;;;;;;;45.70;27.70;;;;;;;4.32;67.02;99444.98;87568;1284;95800;-71
2022/01/09 08:53:50;;;;;;;49.10;29.10;;;;;;;4.09;66.66;99443.84;87581;1283;79326;-59
2022/01/09 08:56:03;;;;;;;39.50;26.20;;;;;;;3.69;66.31;99445.63;87574;1284;80666;-68
2022/01/09 08:58:09;;;;;;;42.30;26.00;;;;;;;3.38;66.34;99444.67;87484;1284;100167;-68
2022/01/09 09:00:21;;;;;;;41.50;26.00;;;;;;;3.03;66.73;99445.52;87378;1287;88682;-60
2022/01/09 09:02:41;;;;;;;43.90;26.80;;;;;;;3.23;66.93;99445.98;87578;1284;93996;-69
2022/01/09 09:04:55;;;;;;;42.90;26.60;;;;;;;3.44;67.13;99451.95;87268;1287;78961;-69
2022/01/09 09:07:01;;;;;;;38.40;25.10;;;;;;;3.81;67.15;99447.70;87589;1284;81061;-69
2022/01/09 09:09:09;;;;;;;38.00;24.70;;;;;;;4.19;66.68;99441.48;87611;1284;96979;-58
2022/01/09 09:11:15;;;;;;;37.70;24.30;;;;;;;4.69;66.49;99444.24;87584;1284;87963;-69
2022/01/09 09:13:21;;;;;;;35.70;24.20;;;;;;;5.24;65.72;99445.54;87566;1284;95211;-69
2022/01/09 09:15:28;;;;;;;34.40;23.10;;;;;;;5.69;65.49;99442.31;87604;1284;79840;-69
2022/01/09 09:17:39;;;;;;;35.30;23.20;;;;;;;6.11;64.63;99443.30;87610;1284;83316;-59
2022/01/09 09:19:48;;;;;;;37.20;24.20;;;;;;;6.41;64.34;99445.90;87364;1287;100383;-59
2022/01/09 09:21:58;;;;;;;36.70;23.50;;;;;;;6.62;63.55;99446.02;87643;1283;87200;-69
2022/01/09 09:24:10;;;;;;;35.40;22.80;;;;;;;6.37;62.76;99449.77;87367;1287;95135;-68
2022/01/09 09:26:17;;;;;;;32.10;21.80;;;;;;;6.42;62.81;99448.52;87571;1284;78635;-67
2022/01/09 09:28:25;;;;;;;33.20;23.90;;;;;;;6.39;62.61;99444.60;87639;1284;80838;-68
2022/01/09 09:30:32;;;;;;;32.30;22.40;;;;;;;6.36;62.87;99447.41;87554;1284;99865;-60
2022/01/09 09:32:43;;;;;;;33.00;23.00;;;;;;;6.53;62.52;99447.80;87584;1284;85781;-60
2022/01/09 09:34:49;;;;;;;34.10;22.80;;;;;;;6.80;62.53;99444.90;87578;1284;95447;-61
2022/01/09 09:36:58;;;;;;;31.00;22.50;;;;;;;7.13;61.53;99449.63;87574;1284;78593;-58
2022/01/09 09:39:08;;;;;;;34.10;22.50;;;;;;;7.48;61.03;99450.94;87595;1284;80805;-60
2022/01/09 09:41:14;;;;;;;31.30;22.30;;;;;;;7.43;61.56;99454.11;87431;1285;98367;-62
2022/01/09 09:43:22;;;;;;;32.70;22.90;;;;;;;7.66;61.22;99447.61;87614;1284;89809;-60
2022/01/09 09:45:31;;;;;;;30.10;22.30;;;;;;;7.60;61.37;99448.28;87400;1287;95756;-65
2022/01/09 09:47:40;;;;;;;30.80;23.10;;;;;;;7.64;61.47;99448.23;87455;1285;79848;-68
2022/01/09 09:49:45;;;;;;;32.20;23.20;;;;;;;7.72;60.33;99446.48;87613;1284;82031;-69
2022/01/09 09:51:52;;;;;;;33.40;23.50;;;;;;;7.71;60.80;99444.14;87576;1284;100617;-70